Skip Navigation LinksHome page > Weather > Current weather Skip Navigation Links

Current Weather

Chicago O'Hare Intl, Chicago

For information only: do not use for flight planning or navigation.
Latest weather
Observation time Friday, October 30, 2020 3:51 PM CDT
Local time Friday, October 30, 2020 4:42 PM CDT
Flight conditions Visual Meteorological Conditions
Winds
Wind direction Northeast (50°)
Wind speed 7 mph
Visibility 10 mi.
Sky condition
Ceiling unlimited
Sky clear
Temperature 43°F
Dewpoint 23°F
Altimeter 30.28 in.Hg
Pressure change last 3 hours0.02 in.Hg
Pressure falling more slowly
Derived measurements
Relative humidity 45%
Wind chill 39°F
Density altitude -747 ft.
Sea-level pressure 30.30 in.Hg
Remarks
Automated weather observing station with precipitation discriminator.
METAR KORD 302051Z 05006KT 10SM CLR 06/M05 A3028 RMK AO2 SLP260 T00611050 56007

Settings

Location code

InnerDrive.Weather 4.0.6770.0 Release CLR 4.0.30319.42000
Copyright ©2018 Inner Drive Technology. All rights reserved. Portions Copyright ©1986-2018 David Braverman.

Find weather

Site navigation


Skip Navigation Links

Place info

Page info

PayPal - The safer, easier way to pay online!

Return home.

Copyright ©2020 Inner Drive Technology. Purveyors of fine, hand-crafted computer software. Page printed 2020-10-30T21:42:40 UTC.